Time;durP1;ratioP1;P1;durP2;ratioP2;P2;SDS_P1;SDS_P2;PMS_P1;PMS_P2;Temp;Humidity;BMP_temperature;BMP_pressure;BME280_temperature;BME280_humidity;BME280_pressure;Samples;Min_cycle;Max_cycle;Signal;HPM_P1;HPM_P2
2021/06/20 00:00:24;;;;;;;22.05;13.40;;;23.00;99.90;;;;;;1885779;74;21154;-69
2021/06/20 00:02:51;;;;;;;;;;;23.00;99.90;;;;;;1899665;74;21100;-70
2021/06/20 00:05:21;;;;;;;15.23;12.88;;;23.00;99.90;;;;;;1886991;74;20434;-69
2021/06/20 00:07:50;;;;;;;15.50;12.00;;;23.00;99.90;;;;;;1889648;75;21589;-70
2021/06/20 00:10:23;;;;;;;22.25;13.28;;;23.00;99.90;;;;;;1889003;76;21138;-69
2021/06/20 00:12:52;;;;;;;20.62;13.90;;;23.00;99.90;;;;;;1889491;74;21107;-69
2021/06/20 00:15:21;;;;;;;20.97;13.60;;;23.00;99.90;;;;;;1888499;74;21628;-69
2021/06/20 00:17:49;;;;;;;18.75;13.80;;;23.00;99.90;;;;;;1889593;76;21094;-70
2021/06/20 00:20:18;;;;;;;20.65;13.62;;;23.00;99.90;;;;;;1888069;76;21091;-70
2021/06/20 00:22:47;;;;;;;15.80;13.45;;;23.00;99.90;;;;;;1890647;76;21059;-69
2021/06/20 00:25:16;;;;;;;18.42;13.98;;;23.00;99.90;;;;;;1889956;75;21099;-69
2021/06/20 00:27:44;;;;;;;18.92;13.90;;;23.00;99.90;;;;;;1888432;76;21559;-69
2021/06/20 00:30:19;;;;;;;20.30;14.68;;;23.00;99.90;;;;;;1897643;74;21193;-70
2021/06/20 00:32:47;;;;;;;17.70;14.05;;;23.00;99.90;;;;;;1907909;74;21100;-70
2021/06/20 00:35:16;;;;;;;20.82;14.83;;;23.00;99.90;;;;;;1905303;73;21108;-70
2021/06/20 00:37:43;;;;;;;21.90;14.83;;;23.00;99.90;;;;;;1891581;74;21154;-71
2021/06/20 00:40:11;;;;;;;20.08;14.60;;;23.00;99.90;;;;;;1883546;74;21086;-71
2021/06/20 00:42:40;;;;;;;22.02;15.85;;;23.00;99.90;;;;;;1912592;74;21062;-70
2021/06/20 00:45:10;;;;;;;21.57;15.32;;;22.90;99.90;;;;;;1894979;74;21150;-69
2021/06/20 00:47:37;;;;;;;20.35;15.98;;;22.90;99.90;;;;;;1889267;75;21536;-70
2021/06/20 00:50:06;;;;;;;21.87;15.20;;;22.90;99.90;;;;;;1887385;75;21079;-70
2021/06/20 00:52:35;;;;;;;20.57;15.63;;;22.80;99.90;;;;;;1898368;74;21071;-71
2021/06/20 00:55:04;;;;;;;20.57;15.72;;;22.80;99.90;;;;;;1888202;76;21114;-71
2021/06/20 00:57:33;;;;;;;20.82;15.50;;;22.90;99.90;;;;;;1886404;76;21156;-70
2021/06/20 01:00:02;;;;;;;19.35;15.40;;;22.90;99.90;;;;;;1889300;76;21124;-71
2021/06/20 01:02:30;;;;;;;19.10;16.55;;;22.90;99.90;;;;;;1889701;76;21016;-72
2021/06/20 01:04:57;;;;;;;22.75;16.67;;;22.90;99.90;;;;;;1888133;76;21156;-72
2021/06/20 01:07:25;;;;;;;19.90;15.50;;;22.90;99.90;;;;;;1886156;76;21095;-72
2021/06/20 01:09:53;;;;;;;19.02;15.35;;;22.90;99.90;;;;;;1888239;76;21514;-72
2021/06/20 01:12:22;;;;;;;19.80;15.85;;;22.90;99.90;;;;;;1887632;74;21138;-72
2021/06/20 01:14:50;;;;;;;23.18;16.55;;;23.00;99.90;;;;;;1873400;74;21626;-72
2021/06/20 01:17:19;;;;;;;22.48;16.50;;;23.00;99.90;;;;;;1886961;74;21600;-71
2021/06/20 01:19:48;;;;;;;19.57;15.30;;;23.00;99.90;;;;;;1888430;76;21130;-71
2021/06/20 01:22:27;;;;;;;21.85;16.25;;;23.00;99.90;;;;;;1887773;74;21101;-72
2021/06/20 01:24:56;;;;;;;21.15;16.73;;;23.00;99.90;;;;;;1880131;74;21038;-72
2021/06/20 01:27:27;;;;;;;22.32;16.50;;;23.00;99.90;;;;;;1917503;74;21498;-71
2021/06/20 01:29:54;;;;;;;23.70;17.42;;;23.00;99.90;;;;;;1875838;76;21046;-71
2021/06/20 01:32:22;;;;;;;25.20;17.10;;;23.00;99.90;;;;;;1888454;76;21577;-71
2021/06/20 01:34:49;;;;;;;19.77;15.68;;;23.00;99.90;;;;;;1889258;74;21192;-72
2021/06/20 01:37:18;;;;;;;21.62;16.30;;;23.10;99.90;;;;;;1887599;76;21521;-71
2021/06/20 01:39:46;;;;;;;24.02;16.32;;;23.10;99.90;;;;;;1889103;76;21445;-72
2021/06/20 01:42:16;;;;;;;19.87;15.85;;;23.10;99.90;;;;;;1886384;76;21099;-72
2021/06/20 01:44:53;;;;;;;21.48;16.87;;;23.10;99.90;;;;;;1889244;75;22151;-70
2021/06/20 01:47:23;;;;;;;18.25;15.68;;;23.10;99.90;;;;;;1887991;74;21110;-71
2021/06/20 01:49:51;;;;;;;18.77;15.80;;;23.10;99.90;;;;;;1884283;76;21197;-71
2021/06/20 01:52:23;;;;;;;21.70;16.65;;;23.10;99.90;;;;;;1900709;74;21072;-71
2021/06/20 01:54:53;;;;;;;23.95;16.52;;;23.10;99.90;;;;;;1883486;74;21120;-70
2021/06/20 01:57:29;;;;;;;19.98;16.45;;;23.10;99.90;;;;;;1885610;74;21215;-71
2021/06/20 01:59:59;;;;;;;22.52;17.50;;;23.10;99.90;;;;;;1882705;74;21089;-69
2021/06/20 02:02:29;;;;;;;23.50;17.45;;;23.10;99.90;;;;;;1886469;74;21360;-70
2021/06/20 02:04:57;;;;;;;19.98;17.62;;;23.10;99.90;;;;;;1896723;74;21092;-69
2021/06/20 02:07:28;;;;;;;22.50;17.57;;;23.10;99.90;;;;;;1894336;74;21626;-71
2021/06/20 02:09:57;;;;;;;29.10;16.93;;;23.10;99.90;;;;;;1882882;75;21088;-70
2021/06/20 02:12:30;;;;;;;20.90;16.90;;;23.10;99.90;;;;;;1901996;74;21104;-70
2021/06/20 02:14:55;;;;;;;22.93;16.12;;;23.20;99.90;;;;;;1912424;73;21672;-69
2021/06/20 02:17:30;;;;;;;22.90;18.27;;;23.20;99.90;;;;;;1887346;74;21590;-71
2021/06/20 02:20:01;;;;;;;20.82;17.80;;;23.20;99.90;;;;;;1888171;76;21167;-71
2021/06/20 02:22:29;;;;;;;22.40;16.90;;;23.20;99.90;;;;;;1889536;74;21152;-71
2021/06/20 02:24:57;;;;;;;22.55;17.92;;;23.10;99.90;;;;;;1889290;74;21482;-71
2021/06/20 02:27:25;;;;;;;24.10;18.30;;;23.10;99.90;;;;;;1889572;76;21152;-71
2021/06/20 02:29:56;;;;;;;22.50;17.45;;;23.10;99.90;;;;;;1893016;74;21080;-71
2021/06/20 02:32:25;;;;;;;26.05;17.85;;;23.10;99.90;;;;;;1891825;74;21159;-71
2021/06/20 02:34:53;;;;;;;24.12;18.45;;;23.10;99.90;;;;;;1905519;73;21120;-71
2021/06/20 02:37:22;;;;;;;26.12;18.12;;;23.10;99.90;;;;;;1887185;74;21091;-72
2021/06/20 02:39:50;;;;;;;23.35;18.20;;;23.10;99.90;;;;;;1878806;74;21171;-71
2021/06/20 02:42:18;;;;;;;23.00;19.02;;;23.10;99.90;;;;;;1887021;74;21609;-70
2021/06/20 02:44:46;;;;;;;22.32;17.00;;;23.10;99.90;;;;;;1884117;75;21149;-71
2021/06/20 02:47:14;;;;;;;20.75;18.48;;;23.10;99.90;;;;;;1888309;74;21088;-71
2021/06/20 02:49:42;;;;;;;21.42;17.87;;;23.10;99.90;;;;;;1883498;76;21104;-71
2021/06/20 02:52:12;;;;;;;21.97;18.48;;;23.10;99.90;;;;;;1879995;74;21154;-70
2021/06/20 02:54:50;;;;;;;21.73;17.57;;;23.10;99.90;;;;;;1888065;75;21159;-70
2021/06/20 02:57:10;;;;;;;22.42;17.35;;;23.10;99.90;;;;;;1897205;74;21492;-70
2021/06/20 02:59:38;;;;;;;22.73;19.65;;;23.10;99.90;;;;;;1901332;74;21072;-69
2021/06/20 03:02:05;;;;;;;29.48;20.60;;;22.90;99.90;;;;;;1888542;74;21044;-71
2021/06/20 03:04:32;;;;;;;24.50;19.70;;;22.80;99.90;;;;;;1889163;74;21565;-71
2021/06/20 03:07:00;;;;;;;23.60;19.12;;;22.80;99.90;;;;;;1884858;74;21081;-71
2021/06/20 03:09:27;;;;;;;21.42;19.02;;;22.90;99.90;;;;;;1883778;76;21363;-71
2021/06/20 03:11:55;;;;;;;30.88;19.70;;;22.90;99.90;;;;;;1886473;74;21482;-72
2021/06/20 03:14:22;;;;;;;19.62;17.57;;;22.90;99.90;;;;;;1887432;74;21123;-71
2021/06/20 03:16:50;;;;;;;24.47;18.55;;;22.90;99.90;;;;;;1888339;74;21112;-70
2021/06/20 03:19:17;;;;;;;21.12;17.35;;;23.00;99.90;;;;;;1887932;74;21494;-70
2021/06/20 03:21:45;;;;;;;26.68;18.87;;;23.10;99.90;;;;;;1899166;74;21577;-70
2021/06/20 03:24:13;;;;;;;19.55;16.65;;;23.10;99.90;;;;;;1890383;74;21093;-69
2021/06/20 03:26:40;;;;;;;20.12;16.32;;;23.20;99.90;;;;;;1901796;74;21136;-69
2021/06/20 03:29:08;;;;;;;21.15;16.12;;;23.20;99.90;;;;;;1892701;74;21101;-70
2021/06/20 03:31:35;;;;;;;21.23;15.75;;;23.20;99.90;;;;;;1896369;74;21039;-70
2021/06/20 03:34:03;;;;;;;21.65;15.78;;;23.30;99.90;;;;;;1905641;74;21098;-71
2021/06/20 03:36:31;;;;;;;21.62;15.90;;;23.30;99.90;;;;;;1889725;76;21083;-70
2021/06/20 03:38:58;;;;;;;25.10;15.85;;;23.40;99.90;;;;;;1889125;74;21036;-70
2021/06/20 03:41:25;;;;;;;18.02;13.68;;;23.40;99.90;;;;;;1899635;74;21061;-71
2021/06/20 03:43:53;;;;;;;20.10;13.20;;;23.40;99.90;;;;;;1888361;75;21087;-70
2021/06/20 03:46:20;;;;;;;21.60;13.75;;;23.40;99.90;;;;;;1913320;74;21101;-70
2021/06/20 03:48:48;;;;;;;19.37;13.40;;;23.50;99.90;;;;;;1886383;74;21072;-70
2021/06/20 03:51:16;;;;;;;20.52;13.30;;;23.50;99.90;;;;;;1882692;74;21196;-69
2021/06/20 03:53:44;;;;;;;28.10;13.83;;;23.60;99.90;;;;;;1893237;74;21129;-70
2021/06/20 03:56:12;;;;;;;16.10;12.15;;;23.50;99.90;;;;;;1887437;76;21944;-70
2021/06/20 03:58:39;;;;;;;20.88;12.00;;;23.50;99.90;;;;;;1891666;74;21187;-70
2021/06/20 04:01:07;;;;;;;14.35;10.20;;;23.50;99.90;;;;;;1897215;74;21082;-69
2021/06/20 04:03:34;;;;;;;24.25;10.05;;;23.40;99.90;;;;;;1888543;74;21184;-69
2021/06/20 04:06:02;;;;;;;16.12;9.55;;;23.40;99.90;;;;;;1894387;74;21111;-68
2021/06/20 04:08:29;;;;;;;17.37;7.50;;;23.40;99.90;;;;;;1903126;74;21045;-69
2021/06/20 04:10:57;;;;;;;13.08;7.17;;;23.50;99.90;;;;;;1901225;74;22211;-67
2021/06/20 04:13:24;;;;;;;12.10;6.10;;;23.50;99.90;;;;;;1912156;74;21087;-69
2021/06/20 04:15:52;;;;;;;16.12;5.58;;;23.50;99.90;;;;;;1895389;74;21511;-68
2021/06/20 04:18:20;;;;;;;15.93;5.90;;;23.50;99.90;;;;;;1883820;74;21098;-69
2021/06/20 04:20:47;;;;;;;9.85;4.85;;;23.40;99.90;;;;;;1886025;74;21100;-69
2021/06/20 04:23:16;;;;;;;8.68;4.65;;;23.40;99.90;;;;;;1897405;74;21173;-68
2021/06/20 04:25:43;;;;;;;9.30;3.70;;;23.40;99.90;;;;;;1903830;73;21118;-69
2021/06/20 04:28:11;;;;;;;11.73;4.20;;;23.40;99.90;;;;;;1887357;74;21080;-69
2021/06/20 04:30:38;;;;;;;11.95;3.77;;;23.50;99.90;;;;;;1883709;74;21050;-70
2021/06/20 04:33:06;;;;;;;8.63;3.83;;;23.40;99.90;;;;;;1881714;74;21085;-68
2021/06/20 04:35:33;;;;;;;11.30;3.70;;;23.40;99.90;;;;;;1892065;74;22205;-68
2021/06/20 04:38:01;;;;;;;9.18;3.65;;;23.40;99.90;;;;;;1892283;74;21104;-69
2021/06/20 04:40:28;;;;;;;12.88;3.25;;;23.40;99.90;;;;;;1899363;74;21092;-68
2021/06/20 04:43:05;;;;;;;8.55;3.05;;;23.50;99.90;;;;;;1895636;74;21091;-68
2021/06/20 04:45:30;;;;;;;12.15;3.62;;;23.50;99.90;;;;;;1886733;74;21196;-68
2021/06/20 04:47:57;;;;;;;11.57;2.70;;;23.40;99.90;;;;;;1887864;76;21198;-69
2021/06/20 04:50:25;;;;;;;6.62;2.58;;;23.40;99.90;;;;;;1901985;74;21051;-69
2021/06/20 04:52:53;;;;;;;10.35;3.10;;;23.40;99.90;;;;;;1904008;74;21161;-69
2021/06/20 04:55:21;;;;;;;8.10;2.30;;;23.30;99.90;;;;;;1906816;73;21656;-69
2021/06/20 04:57:48;;;;;;;9.78;2.33;;;23.30;99.90;;;;;;1901506;74;21104;-69
2021/06/20 05:00:16;;;;;;;7.33;2.00;;;23.30;99.90;;;;;;1892307;74;21101;-70
2021/06/20 05:02:44;;;;;;;7.25;2.10;;;23.40;99.90;;;;;;1886145;74;21116;-69
2021/06/20 05:05:12;;;;;;;9.63;2.70;;;23.30;99.90;;;;;;1902405;74;21135;-69
2021/06/20 05:07:39;;;;;;;10.55;2.62;;;23.40;99.90;;;;;;1895480;74;21363;-68
2021/06/20 05:10:08;;;;;;;11.70;3.05;;;23.30;99.90;;;;;;1885084;74;21027;-69
2021/06/20 05:12:35;;;;;;;14.30;2.90;;;23.40;99.90;;;;;;1886766;74;21021;-69
2021/06/20 05:15:03;;;;;;;11.12;2.30;;;23.40;99.90;;;;;;1882207;73;21094;-71
2021/06/20 05:17:30;;;;;;;8.80;2.20;;;23.30;99.90;;;;;;1881649;76;21101;-71
2021/06/20 05:19:58;;;;;;;8.68;2.92;;;23.40;99.90;;;;;;1882284;76;21526;-70
2021/06/20 05:22:25;;;;;;;6.87;2.47;;;23.40;99.90;;;;;;1882193;76;21081;-69
2021/06/20 05:24:53;;;;;;;8.78;2.67;;;23.40;99.90;;;;;;1899290;75;21156;-70
2021/06/20 05:27:20;;;;;;;9.45;2.62;;;23.40;99.90;;;;;;1839307;76;21570;-70
2021/06/20 05:29:48;;;;;;;7.90;2.58;;;23.40;99.90;;;;;;1841514;76;21082;-70
2021/06/20 05:32:15;;;;;;;9.08;2.22;;;23.40;99.90;;;;;;1837224;76;21100;-70
2021/06/20 05:34:43;;;;;;;11.40;2.40;;;23.40;99.90;;;;;;1833458;77;21124;-71
2021/06/20 05:37:10;;;;;;;10.68;2.45;;;23.40;99.90;;;;;;1837683;76;21531;-70
2021/06/20 05:39:38;;;;;;;13.30;2.40;;;23.30;99.90;;;;;;1845188;77;21089;-70
2021/06/20 05:42:05;;;;;;;8.95;2.55;;;23.30;99.90;;;;;;1846383;76;21093;-70
2021/06/20 05:44:33;;;;;;;8.58;2.87;;;23.30;99.90;;;;;;1841226;76;21135;-70
2021/06/20 05:47:02;;;;;;;12.55;2.50;;;23.40;99.90;;;;;;1834117;78;21165;-70
2021/06/20 05:49:30;;;;;;;9.60;2.67;;;23.40;99.90;;;;;;1834434;76;21080;-70
2021/06/20 05:51:57;;;;;;;8.38;2.50;;;23.40;99.90;;;;;;1833736;76;21522;-70
2021/06/20 05:54:25;;;;;;;8.93;2.55;;;23.40;99.90;;;;;;1839081;76;21202;-70
2021/06/20 05:56:52;;;;;;;10.82;2.47;;;23.40;99.90;;;;;;1841804;76;21081;-71
2021/06/20 05:59:20;;;;;;;17.90;2.35;;;23.40;99.90;;;;;;1841281;76;21050;-71
2021/06/20 06:01:47;;;;;;;12.75;2.80;;;23.40;99.90;;;;;;1835069;76;21561;-71
2021/06/20 06:04:15;;;;;;;11.53;2.58;;;23.50;99.90;;;;;;1839702;76;21089;-70
2021/06/20 06:06:42;;;;;;;8.00;2.67;;;23.50;99.90;;;;;;1842239;76;21196;-70
2021/06/20 06:09:10;;;;;;;7.25;2.42;;;23.60;99.90;;;;;;1848440;76;21513;-71
2021/06/20 06:11:37;;;;;;;8.93;2.52;;;23.60;99.90;;;;;;1851693;77;21360;-71
2021/06/20 06:14:05;;;;;;;9.68;2.55;;;23.60;99.90;;;;;;1842405;76;21013;-70
2021/06/20 06:16:33;;;;;;;10.95;2.40;;;23.60;99.90;;;;;;1834252;77;21080;-70
2021/06/20 06:19:00;;;;;;;9.00;2.50;;;23.50;99.90;;;;;;1834795;76;21025;-69
2021/06/20 06:21:28;;;;;;;10.98;2.42;;;23.60;99.90;;;;;;1834220;77;21017;-70
2021/06/20 06:23:55;;;;;;;13.62;2.70;;;23.60;99.90;;;;;;1842438;76;21025;-71
2021/06/20 06:26:23;;;;;;;9.25;2.27;;;23.60;99.90;;;;;;1834283;77;21613;-71
2021/06/20 06:28:51;;;;;;;11.18;2.42;;;23.60;99.90;;;;;;1837781;76;21096;-72
2021/06/20 06:31:18;;;;;;;7.67;2.33;;;23.60;99.90;;;;;;1842371;76;21003;-70
2021/06/20 06:33:46;;;;;;;10.88;2.62;;;23.60;99.90;;;;;;1838707;76;21117;-70
2021/06/20 06:36:13;;;;;;;11.35;2.80;;;23.60;99.90;;;;;;1836091;76;21124;-71
2021/06/20 06:38:41;;;;;;;15.75;2.80;;;23.50;99.90;;;;;;1841099;76;21093;-70
2021/06/20 06:41:08;;;;;;;8.93;2.67;;;23.50;99.90;;;;;;1869466;76;22193;-70
2021/06/20 06:43:36;;;;;;;10.75;2.70;;;23.60;99.90;;;;;;1841535;78;21093;-70
2021/06/20 06:46:03;;;;;;;12.20;2.60;;;23.60;99.90;;;;;;1850151;76;21187;-71
2021/06/20 06:48:31;;;;;;;10.72;2.50;;;23.60;99.90;;;;;;1850330;76;21120;-71
2021/06/20 06:50:58;;;;;;;12.10;2.70;;;23.60;99.90;;;;;;1837866;76;21060;-71
2021/06/20 06:53:26;;;;;;;11.80;2.75;;;23.60;99.90;;;;;;1846244;76;21021;-71
2021/06/20 06:55:54;;;;;;;12.15;2.58;;;23.60;99.90;;;;;;1855122;76;21116;-72
2021/06/20 06:58:21;;;;;;;10.30;2.27;;;23.70;99.90;;;;;;1861593;76;21104;-70
2021/06/20 07:00:49;;;;;;;16.17;3.12;;;23.70;99.90;;;;;;1859389;76;21226;-71
2021/06/20 07:03:16;;;;;;;15.03;3.22;;;23.70;99.90;;;;;;1842511;76;21038;-69
2021/06/20 07:05:44;;;;;;;9.53;2.87;;;23.70;99.90;;;;;;1841819;76;21094;-70
2021/06/20 07:08:11;;;;;;;14.53;2.90;;;23.60;99.90;;;;;;1850817;77;21071;-69
2021/06/20 07:10:39;;;;;;;9.95;3.35;;;23.60;99.90;;;;;;1850772;77;21623;-70
2021/06/20 07:13:07;;;;;;;9.58;3.08;;;23.60;99.90;;;;;;1846777;76;21136;-70
2021/06/20 07:15:35;;;;;;;14.95;3.30;;;23.70;99.90;;;;;;1850838;76;21086;-70
2021/06/20 07:18:03;;;;;;;12.60;3.65;;;23.70;99.90;;;;;;1850750;77;21615;-71
2021/06/20 07:20:31;;;;;;;14.45;4.03;;;23.80;99.90;;;;;;1850832;76;21170;-71
2021/06/20 07:22:59;;;;;;;12.75;3.58;;;23.80;99.90;;;;;;1850749;77;21171;-71
2021/06/20 07:25:26;;;;;;;10.80;3.45;;;23.80;99.90;;;;;;1850748;76;21634;-70
2021/06/20 07:27:54;;;;;;;13.18;4.00;;;23.80;99.90;;;;;;1850901;77;22154;-70
2021/06/20 07:30:22;;;;;;;13.95;5.40;;;23.80;99.90;;;;;;1850714;77;21043;-70
2021/06/20 07:32:50;;;;;;;12.50;3.92;;;23.80;99.90;;;;;;1850731;77;21082;-69
2021/06/20 07:35:18;;;;;;;14.90;4.17;;;23.70;99.90;;;;;;1845441;76;21144;-69
2021/06/20 07:37:45;;;;;;;12.80;4.78;;;23.80;99.90;;;;;;1850424;77;21533;-70
2021/06/20 07:40:14;;;;;;;13.70;4.92;;;23.90;99.90;;;;;;1847643;77;21563;-69
2021/06/20 07:42:44;;;;;;;13.20;5.30;;;23.80;99.90;;;;;;1843144;76;21606;-70
2021/06/20 07:45:12;;;;;;;15.40;5.80;;;23.80;99.90;;;;;;1846076;76;21069;-69
2021/06/20 07:47:40;;;;;;;11.12;5.22;;;23.80;99.90;;;;;;1849113;76;21331;-70
2021/06/20 07:50:11;;;;;;;12.05;5.65;;;23.80;99.90;;;;;;1846758;76;21073;-69
2021/06/20 07:52:39;;;;;;;13.10;6.25;;;23.80;99.90;;;;;;1842025;77;21115;-69
2021/06/20 07:55:09;;;;;;;10.68;5.55;;;23.90;99.90;;;;;;1846299;76;21238;-69
2021/06/20 07:57:36;;;;;;;12.47;6.25;;;23.90;99.90;;;;;;1846533;77;21533;-69
2021/06/20 08:00:08;;;;;;;16.82;6.28;;;23.80;99.90;;;;;;1845062;76;21533;-69
2021/06/20 08:02:36;;;;;;;11.75;5.28;;;23.90;99.90;;;;;;1848705;76;21602;-68
2021/06/20 08:07:05;;;;;;;11.10;6.28;;;23.80;99.90;;;;;;1950484;73;24723;-66
2021/06/20 08:09:33;;;;;;;14.60;7.15;;;23.90;99.90;;;;;;1916618;73;21110;-68
2021/06/20 08:12:01;;;;;;;16.00;7.37;;;23.90;99.90;;;;;;1918909;73;21095;-67
2021/06/20 08:14:29;;;;;;;16.50;7.47;;;23.90;99.90;;;;;;1918010;73;21133;-66
2021/06/20 08:16:56;;;;;;;17.48;8.10;;;23.80;99.90;;;;;;1915186;73;21326;-66
2021/06/20 08:19:24;;;;;;;12.58;7.80;;;23.80;99.90;;;;;;1918958;73;21500;-66
2021/06/20 08:21:52;;;;;;;15.35;7.75;;;23.80;99.90;;;;;;1913877;73;22229;-67
2021/06/20 08:24:19;;;;;;;14.47;7.83;;;23.90;99.90;;;;;;1917083;73;21082;-67
2021/06/20 08:26:47;;;;;;;17.17;8.73;;;23.90;99.90;;;;;;1920556;73;21115;-68
2021/06/20 08:29:15;;;;;;;13.22;7.62;;;23.90;99.90;;;;;;1879215;75;21107;-67
2021/06/20 08:31:43;;;;;;;13.48;7.97;;;23.90;99.90;;;;;;1884412;75;22200;-66
2021/06/20 08:34:10;;;;;;;17.48;8.40;;;24.00;99.90;;;;;;1894763;75;21923;-68
2021/06/20 08:36:38;;;;;;;12.10;8.53;;;24.10;99.90;;;;;;1853248;75;21171;-68
2021/06/20 08:39:07;;;;;;;12.78;7.87;;;24.20;99.90;;;;;;1882297;75;21086;-66
2021/06/20 08:41:37;;;;;;;21.00;10.05;;;24.20;99.90;;;;;;1881883;75;21079;-67
2021/06/20 08:44:19;;;;;;;19.23;9.73;;;24.30;99.90;;;;;;1869183;76;21161;-67
2021/06/20 08:46:47;;;;;;;17.77;9.73;;;24.20;99.90;;;;;;1847348;77;21600;-67
2021/06/20 08:49:15;;;;;;;19.42;10.13;;;24.20;99.90;;;;;;1851141;76;21109;-67
2021/06/20 08:51:48;;;;;;;13.32;10.10;;;24.20;99.90;;;;;;1849080;77;21575;-67
2021/06/20 08:54:16;;;;;;;20.25;10.40;;;24.20;99.90;;;;;;1857086;76;21143;-66
2021/06/20 08:56:44;;;;;;;18.40;9.45;;;24.20;99.90;;;;;;1854885;76;21091;-68
2021/06/20 08:59:15;;;;;;;17.10;11.50;;;24.30;99.90;;;;;;1875576;76;21142;-68
2021/06/20 09:01:43;;;;;;;19.92;11.70;;;24.20;99.90;;;;;;1863698;76;21050;-66
2021/06/20 09:04:13;;;;;;;16.85;12.25;;;24.30;99.90;;;;;;1852064;76;21024;-66
2021/06/20 09:06:40;;;;;;;17.67;12.18;;;24.20;99.90;;;;;;1849580;76;21529;-65
2021/06/20 09:09:08;;;;;;;20.27;13.35;;;24.20;99.90;;;;;;1930193;73;21810;-69
2021/06/20 09:11:38;;;;;;;19.00;12.33;;;24.10;99.90;;;;;;1924536;73;21474;-68
2021/06/20 09:14:14;;;;;;;17.80;11.43;;;24.20;99.90;;;;;;1923443;73;21558;-68
2021/06/20 09:16:53;;;;;;;15.03;11.22;;;24.50;99.90;;;;;;1921066;74;21630;-68
2021/06/20 09:19:32;;;;;;;14.87;10.38;;;24.70;99.90;;;;;;1923659;73;21064;-68
2021/06/20 09:22:04;;;;;;;18.07;11.18;;;24.80;99.90;;;;;;1924577;74;21008;-68
2021/06/20 09:24:30;;;;;;;18.63;10.83;;;25.00;99.90;;;;;;1925639;73;21048;-68
2021/06/20 09:27:00;;;;;;;17.15;10.60;;;25.20;99.90;;;;;;1925351;74;21160;-68
2021/06/20 09:29:34;;;;;;;14.40;10.00;;;25.30;99.90;;;;;;1925630;74;21139;-69
2021/06/20 09:32:04;;;;;;;16.52;10.38;;;25.30;99.90;;;;;;1925911;73;21107;-68
2021/06/20 09:34:54;;;;;;;20.32;10.72;;;25.30;99.90;;;;;;1925410;73;21063;-66
2021/06/20 09:37:22;;;;;;;17.55;9.85;;;25.20;99.90;;;;;;1840235;78;21196;-73
2021/06/20 09:39:50;;;;;;;13.90;9.58;;;25.30;99.90;;;;;;1920552;73;21139;-67
2021/06/20 09:42:17;;;;;;;13.53;8.60;;;25.40;99.90;;;;;;1873181;76;21144;-67
2021/06/20 09:44:57;;;;;;;14.28;9.48;;;25.50;99.90;;;;;;1872605;76;21200;-67
2021/06/20 09:47:23;;;;;;;12.35;8.40;;;25.60;99.90;;;;;;1842028;76;21216;-68
2021/06/20 09:49:53;;;;;;;12.40;9.23;;;25.60;99.90;;;;;;1874287;75;21098;-68
2021/06/20 09:52:28;;;;;;;13.40;8.58;;;25.60;99.90;;;;;;1923135;73;21107;-67
2021/06/20 09:55:01;;;;;;;13.45;9.90;;;25.80;99.90;;;;;;1843476;76;21134;-67
2021/06/20 09:57:30;;;;;;;14.05;10.38;;;25.80;99.90;;;;;;1917701;73;21104;-67
2021/06/20 10:00:02;;;;;;;13.43;8.90;;;25.80;99.90;;;;;;1914606;73;21125;-69
2021/06/20 10:02:33;;;;;;;15.28;9.70;;;25.80;99.90;;;;;;1923556;73;21054;-67
2021/06/20 10:05:00;;;;;;;12.20;9.05;;;26.00;99.90;;;;;;1921628;74;21214;-68
2021/06/20 10:07:29;;;;;;;12.00;8.65;;;26.20;99.90;;;;;;1921382;74;21125;-68
2021/06/20 10:09:58;;;;;;;18.15;8.63;;;26.40;99.90;;;;;;1924798;73;21113;-69
2021/06/20 10:12:27;;;;;;;13.35;8.05;;;26.30;99.90;;;;;;1938930;73;21055;-69
2021/06/20 10:14:56;;;;;;;13.22;7.28;;;26.40;99.90;;;;;;1935408;73;21767;-69
2021/06/20 10:17:35;;;;;;;14.73;7.47;;;26.60;99.90;;;;;;1953118;73;21117;-68
2021/06/20 10:20:15;;;;;;;17.67;7.53;;;26.80;99.90;;;;;;1922768;73;21097;-69
2021/06/20 10:22:45;;;;;;;11.88;6.42;;;26.70;99.90;;;;;;1933299;73;21150;-67
2021/06/20 10:25:35;;;;;;;11.45;6.70;;;26.60;99.90;;;;;;1935769;73;21581;-68
2021/06/20 10:28:08;;;;;;;10.58;6.85;;;26.60;99.90;;;;;;1922170;74;21122;-69
2021/06/20 10:30:36;;;;;;;9.63;5.60;;;26.60;99.90;;;;;;1948015;73;21484;-68
2021/06/20 10:33:11;;;;;;;9.73;6.37;;;26.40;99.90;;;;;;1922694;73;21563;-68
2021/06/20 10:35:41;;;;;;;9.05;5.85;;;26.50;99.90;;;;;;1921831;74;21200;-67
2021/06/20 10:38:09;;;;;;;10.10;6.12;;;26.60;99.90;;;;;;1923214;73;21101;-67
2021/06/20 10:40:44;;;;;;;10.48;6.75;;;26.70;99.90;;;;;;1925963;73;21195;-68
2021/06/20 10:43:17;;;;;;;11.80;6.05;;;26.60;99.90;;;;;;1927694;73;21653;-67
2021/06/20 10:45:45;;;;;;;7.55;5.03;;;26.40;99.90;;;;;;1934678;73;21968;-66
2021/06/20 10:48:15;;;;;;;8.45;4.30;;;26.50;99.90;;;;;;1935622;73;21689;-67
2021/06/20 10:50:46;;;;;;;11.53;4.70;;;26.50;99.90;;;;;;1887487;75;21462;-67
2021/06/20 10:53:14;;;;;;;8.98;4.62;;;26.50;99.90;;;;;;1938395;73;21073;-66
2021/06/20 10:55:50;;;;;;;4.90;3.75;;;26.60;99.90;;;;;;1924077;73;21078;-66
2021/06/20 10:58:24;;;;;;;6.17;4.33;;;26.80;99.90;;;;;;1937129;73;21076;-66
2021/06/20 11:00:54;;;;;;;7.10;3.77;;;26.80;99.90;;;;;;1923730;73;21029;-66
2021/06/20 11:03:29;;;;;;;6.17;3.67;;;26.90;99.70;;;;;;1909865;73;21080;-67
2021/06/20 11:06:09;;;;;;;6.55;3.87;;;26.90;99.00;;;;;;1923013;74;21111;-67
2021/06/20 11:08:42;;;;;;;4.12;3.33;;;27.00;98.80;;;;;;1914670;73;21082;-65
2021/06/20 11:11:16;;;;;;;5.78;3.25;;;27.00;99.00;;;;;;1927727;74;21086;-66
2021/06/20 11:13:58;;;;;;;6.97;4.20;;;26.90;98.40;;;;;;1932752;73;21171;-66
2021/06/20 11:16:32;;;;;;;6.33;3.45;;;27.00;98.00;;;;;;1931774;70;21245;-70
2021/06/20 11:19:26;;;;;;;6.83;3.25;;;26.90;99.00;;;;;;1924956;73;21109;-69
2021/06/20 11:22:02;;;;;;;8.63;3.20;;;27.00;98.40;;;;;;1904308;73;21085;-70
2021/06/20 11:24:32;;;;;;;5.28;2.70;;;27.00;97.60;;;;;;1925888;73;21538;-69
2021/06/20 11:27:05;;;;;;;4.35;3.20;;;26.90;97.40;;;;;;1933040;72;21187;-69
2021/06/20 11:29:47;;;;;;;5.03;3.27;;;27.00;97.30;;;;;;1929931;72;21089;-69
2021/06/20 11:32:32;;;;;;;6.42;2.60;;;27.10;97.40;;;;;;1930777;74;21081;-70
2021/06/20 11:35:05;;;;;;;5.17;2.98;;;27.20;97.60;;;;;;1949173;72;21192;-70
2021/06/20 11:37:35;;;;;;;3.72;2.80;;;27.30;97.60;;;;;;1975110;72;21125;-69
2021/06/20 11:40:09;;;;;;;5.35;2.72;;;27.40;97.50;;;;;;1944745;72;21078;-68
2021/06/20 11:42:42;;;;;;;5.15;3.10;;;27.50;97.10;;;;;;1941619;72;21155;-70
2021/06/20 11:45:12;;;;;;;7.08;3.00;;;27.50;97.20;;;;;;1899588;75;21162;-68
2021/06/20 11:47:43;;;;;;;4.33;2.90;;;27.60;98.40;;;;;;1899637;75;21140;-70
2021/06/20 11:50:14;;;;;;;8.05;3.20;;;27.70;97.60;;;;;;1898481;75;21104;-69
2021/06/20 11:52:44;;;;;;;5.35;3.40;;;27.90;97.90;;;;;;1899451;75;21676;-69
2021/06/20 11:55:14;;;;;;;8.13;3.52;;;28.00;97.80;;;;;;1857102;76;21140;-68
2021/06/20 11:57:42;;;;;;;8.73;4.40;;;28.10;98.20;;;;;;1825049;78;21639;-69
2021/06/20 12:00:18;;;;;;;11.28;3.67;;;28.10;98.60;;;;;;1853312;77;21615;-68
2021/06/20 12:02:48;;;;;;;9.23;4.05;;;28.10;98.10;;;;;;1858697;74;21100;-68
2021/06/20 12:05:17;;;;;;;6.78;3.75;;;28.10;98.50;;;;;;1904358;75;21168;-69
2021/06/20 12:07:45;;;;;;;5.75;3.75;;;28.10;98.30;;;;;;1906273;75;21105;-70
2021/06/20 12:10:14;;;;;;;4.53;3.50;;;28.20;98.40;;;;;;1906025;75;21607;-70
2021/06/20 12:12:43;;;;;;;4.70;3.30;;;28.20;97.20;;;;;;1906147;75;21062;-70
2021/06/20 12:15:11;;;;;;;10.08;3.80;;;28.20;97.50;;;;;;1906428;75;21106;-70
2021/06/20 12:17:40;;;;;;;7.45;3.50;;;28.10;96.40;;;;;;1897097;74;21153;-70
2021/06/20 12:20:08;;;;;;;6.30;3.25;;;28.10;96.20;;;;;;1884956;76;21129;-70
2021/06/20 12:22:44;;;;;;;9.50;3.05;;;28.10;96.20;;;;;;1884014;76;21191;-70
2021/06/20 12:25:12;;;;;;;7.87;3.00;;;27.90;97.10;;;;;;1885176;76;21106;-70
2021/06/20 12:27:40;;;;;;;6.05;4.00;;;28.00;97.30;;;;;;1885940;76;21545;-69
2021/06/20 12:30:20;;;;;;;4.83;3.50;;;28.00;96.40;;;;;;1885880;76;21019;-70
2021/06/20 12:32:49;;;;;;;5.60;3.33;;;27.90;98.00;;;;;;1891353;75;21113;-70
2021/06/20 12:35:31;;;;;;;4.17;3.22;;;27.90;97.60;;;;;;1891583;76;21518;-69
2021/06/20 12:37:58;;;;;;;;;;;28.00;96.50;;;;;;1893626;76;21092;-69
2021/06/20 12:40:31;;;;;;;4.30;2.90;;;28.00;95.50;;;;;;1890480;76;20193;-69
2021/06/20 12:42:59;;;;;;;5.60;3.27;;;28.00;96.00;;;;;;1887080;76;20983;-69
2021/06/20 12:45:30;;;;;;;10.50;4.05;;;28.10;96.60;;;;;;1889587;76;21596;-70
2021/06/20 12:48:00;;;;;;;8.38;4.20;;;28.10;96.70;;;;;;1876500;76;21043;-70